sensor_id;sensor_type;location;lat;lon;timestamp;pressure;altitude;pressure_sealevel;temperature;humidity
11542;BME280;5827;49.482;7.716;2022-10-16T00:00:19;98548.81;;;17.15;100.00
11542;BME280;5827;49.482;7.716;2022-10-16T00:02:21;98555.16;;;17.24;100.00
11542;BME280;5827;49.482;7.716;2022-10-16T00:04:23;98561.47;;;17.20;100.00
11542;BME280;5827;49.482;7.716;2022-10-16T00:06:25;98567.19;;;17.18;100.00
11542;BME280;5827;49.482;7.716;2022-10-16T00:08:27;98567.22;;;17.13;100.00
11542;BME280;5827;49.482;7.716;2022-10-16T00:10:29;98565.47;;;17.22;100.00
11542;BME280;5827;49.482;7.716;2022-10-16T00:12:30;98562.09;;;17.12;100.00
11542;BME280;5827;49.482;7.716;2022-10-16T00:14:32;98564.31;;;17.10;100.00
11542;BME280;5827;49.482;7.716;2022-10-16T00:16:34;98561.38;;;17.25;100.00
11542;BME280;5827;49.482;7.716;2022-10-16T00:18:37;98554.28;;;17.29;100.00
11542;BME280;5827;49.482;7.716;2022-10-16T00:20:38;98557.06;;;17.43;100.00
11542;BME280;5827;49.482;7.716;2022-10-16T00:22:40;98555.25;;;17.38;100.00
11542;BME280;5827;49.482;7.716;2022-10-16T00:24:41;98557.06;;;17.43;100.00
11542;BME280;5827;49.482;7.716;2022-10-16T00:26:43;98554.22;;;17.15;100.00
11542;BME280;5827;49.482;7.716;2022-10-16T00:28:45;98552.31;;;17.35;100.00
11542;BME280;5827;49.482;7.716;2022-10-16T00:30:47;98549.91;;;17.33;100.00
11542;BME280;5827;49.482;7.716;2022-10-16T00:32:48;98550.19;;;17.32;100.00
11542;BME280;5827;49.482;7.716;2022-10-16T00:34:51;98543.47;;;17.29;100.00
11542;BME280;5827;49.482;7.716;2022-10-16T00:36:54;98540.69;;;17.34;100.00
11542;BME280;5827;49.482;7.716;2022-10-16T00:38:57;98548.81;;;17.34;100.00
11542;BME280;5827;49.482;7.716;2022-10-16T00:41:01;98549.03;;;17.38;100.00
11542;BME280;5827;49.482;7.716;2022-10-16T00:43:02;98549.97;;;17.09;100.00
11542;BME280;5827;49.482;7.716;2022-10-16T00:45:04;98543.72;;;17.09;100.00
11542;BME280;5827;49.482;7.716;2022-10-16T00:47:08;98544.34;;;17.24;100.00
11542;BME280;5827;49.482;7.716;2022-10-16T00:49:12;98539.88;;;17.15;100.00
11542;BME280;5827;49.482;7.716;2022-10-16T00:51:15;98542.28;;;17.16;100.00
11542;BME280;5827;49.482;7.716;2022-10-16T00:53:19;98553.41;;;17.15;100.00
11542;BME280;5827;49.482;7.716;2022-10-16T00:55:20;98559.06;;;17.18;100.00
11542;BME280;5827;49.482;7.716;2022-10-16T00:57:22;98552.88;;;17.32;100.00
11542;BME280;5827;49.482;7.716;2022-10-16T00:59:27;98546.66;;;17.31;100.00
11542;BME280;5827;49.482;7.716;2022-10-16T01:01:29;98547.47;;;17.32;100.00
11542;BME280;5827;49.482;7.716;2022-10-16T01:03:33;98554.78;;;17.31;100.00
11542;BME280;5827;49.482;7.716;2022-10-16T01:05:39;98555.41;;;17.47;100.00
11542;BME280;5827;49.482;7.716;2022-10-16T01:07:53;98568.63;;;17.48;100.00
11542;BME280;5827;49.482;7.716;2022-10-16T01:10:12;98574.28;;;17.52;100.00
11542;BME280;5827;49.482;7.716;2022-10-16T01:12:23;98571.03;;;17.31;100.00
11542;BME280;5827;49.482;7.716;2022-10-16T01:14:36;98576.47;;;17.31;100.00
11542;BME280;5827;49.482;7.716;2022-10-16T01:16:46;98579.63;;;17.38;100.00
11542;BME280;5827;49.482;7.716;2022-10-16T01:18:54;98581.16;;;17.44;100.00
11542;BME280;5827;49.482;7.716;2022-10-16T01:21:01;98569.38;;;17.35;100.00
11542;BME280;5827;49.482;7.716;2022-10-16T01:23:18;98572.16;;;17.49;100.00
11542;BME280;5827;49.482;7.716;2022-10-16T01:25:26;98579.25;;;17.45;100.00
11542;BME280;5827;49.482;7.716;2022-10-16T01:27:34;98577.66;;;17.44;100.00
11542;BME280;5827;49.482;7.716;2022-10-16T01:29:40;98577.16;;;17.42;100.00
11542;BME280;5827;49.482;7.716;2022-10-16T01:31:49;98579.06;;;17.41;100.00
11542;BME280;5827;49.482;7.716;2022-10-16T01:33:57;98573.31;;;17.43;100.00
11542;BME280;5827;49.482;7.716;2022-10-16T01:36:03;98577.66;;;17.44;100.00
11542;BME280;5827;49.482;7.716;2022-10-16T01:38:12;98574.13;;;17.43;100.00
11542;BME280;5827;49.482;7.716;2022-10-16T01:40:16;98579.31;;;17.40;100.00
11542;BME280;5827;49.482;7.716;2022-10-16T01:42:21;98583.44;;;17.37;100.00
11542;BME280;5827;49.482;7.716;2022-10-16T01:44:29;98587.44;;;17.40;100.00
11542;BME280;5827;49.482;7.716;2022-10-16T01:46:33;98580.50;;;17.34;100.00
11542;BME280;5827;49.482;7.716;2022-10-16T01:48:35;98581.38;;;17.29;100.00
11542;BME280;5827;49.482;7.716;2022-10-16T01:50:40;98572.53;;;17.23;100.00
11542;BME280;5827;49.482;7.716;2022-10-16T01:52:45;98565.28;;;17.19;100.00
11542;BME280;5827;49.482;7.716;2022-10-16T01:54:51;98564.31;;;17.28;100.00
11542;BME280;5827;49.482;7.716;2022-10-16T01:56:54;98570.41;;;17.39;100.00
11542;BME280;5827;49.482;7.716;2022-10-16T01:59:02;98586.00;;;17.47;100.00
11542;BME280;5827;49.482;7.716;2022-10-16T02:01:08;98585.47;;;17.45;100.00
11542;BME280;5827;49.482;7.716;2022-10-16T02:03:12;98592.22;;;17.48;100.00
11542;BME280;5827;49.482;7.716;2022-10-16T02:05:19;98586.50;;;17.49;100.00
11542;BME280;5827;49.482;7.716;2022-10-16T02:07:22;98585.25;;;17.61;100.00
11542;BME280;5827;49.482;7.716;2022-10-16T02:09:24;98585.25;;;17.61;100.00
11542;BME280;5827;49.482;7.716;2022-10-16T02:11:25;98591.41;;;17.47;100.00
11542;BME280;5827;49.482;7.716;2022-10-16T02:13:30;98587.75;;;17.38;100.00
11542;BME280;5827;49.482;7.716;2022-10-16T02:15:32;98589.72;;;17.51;100.00
11542;BME280;5827;49.482;7.716;2022-10-16T02:17:35;98581.75;;;17.41;100.00
11542;BME280;5827;49.482;7.716;2022-10-16T02:19:37;98580.88;;;17.46;100.00
11542;BME280;5827;49.482;7.716;2022-10-16T02:21:43;98589.28;;;17.63;100.00
11542;BME280;5827;49.482;7.716;2022-10-16T02:23:51;98600.78;;;17.55;100.00
11542;BME280;5827;49.482;7.716;2022-10-16T02:25:56;98600.25;;;17.53;100.00
11542;BME280;5827;49.482;7.716;2022-10-16T02:28:03;98605.19;;;17.51;100.00
11542;BME280;5827;49.482;7.716;2022-10-16T02:30:13;98601.22;;;17.62;100.00
11542;BME280;5827;49.482;7.716;2022-10-16T02:32:21;98596.81;;;17.47;100.00
11542;BME280;5827;49.482;7.716;2022-10-16T02:34:27;98595.81;;;17.43;100.00
11542;BME280;5827;49.482;7.716;2022-10-16T02:36:31;98582.63;;;17.37;100.00
11542;BME280;5827;49.482;7.716;2022-10-16T02:38:34;98583.94;;;17.39;100.00
11542;BME280;5827;49.482;7.716;2022-10-16T02:40:36;98582.56;;;17.42;100.00
11542;BME280;5827;49.482;7.716;2022-10-16T02:42:39;98576.47;;;17.31;100.00
11542;BME280;5827;49.482;7.716;2022-10-16T02:44:41;98587.81;;;17.33;100.00
11542;BME280;5827;49.482;7.716;2022-10-16T02:46:43;98591.72;;;17.46;100.00
11542;BME280;5827;49.482;7.716;2022-10-16T02:48:44;98582.25;;;17.43;100.00
11542;BME280;5827;49.482;7.716;2022-10-16T02:50:47;98588.09;;;17.32;100.00
11542;BME280;5827;49.482;7.716;2022-10-16T02:52:49;98593.50;;;17.32;100.00
11542;BME280;5827;49.482;7.716;2022-10-16T02:54:50;98587.44;;;17.40;100.00
11542;BME280;5827;49.482;7.716;2022-10-16T02:56:52;98602.66;;;17.54;100.00
11542;BME280;5827;49.482;7.716;2022-10-16T02:58:53;98596.44;;;17.54;100.00
11542;BME280;5827;49.482;7.716;2022-10-16T03:00:55;98600.50;;;17.57;100.00
11542;BME280;5827;49.482;7.716;2022-10-16T03:02:56;98599.16;;;17.54;100.00
11542;BME280;5827;49.482;7.716;2022-10-16T03:04:58;98601.78;;;17.59;100.00
11542;BME280;5827;49.482;7.716;2022-10-16T03:07:01;98602.09;;;17.58;100.00
11542;BME280;5827;49.482;7.716;2022-10-16T03:09:02;98609.50;;;17.52;100.00
11542;BME280;5827;49.482;7.716;2022-10-16T03:11:04;98607.16;;;17.64;100.00
11542;BME280;5827;49.482;7.716;2022-10-16T03:13:06;98614.38;;;17.74;100.00
11542;BME280;5827;49.482;7.716;2022-10-16T03:15:08;98605.53;;;17.44;100.00
11542;BME280;5827;49.482;7.716;2022-10-16T03:17:09;98605.97;;;17.51;100.00
11542;BME280;5827;49.482;7.716;2022-10-16T03:19:11;98614.41;;;17.69;100.00
11542;BME280;5827;49.482;7.716;2022-10-16T03:21:13;98611.66;;;17.74;100.00
11542;BME280;5827;49.482;7.716;2022-10-16T03:23:15;98612.78;;;17.68;100.00
11542;BME280;5827;49.482;7.716;2022-10-16T03:25:17;98619.00;;;17.68;100.00
11542;BME280;5827;49.482;7.716;2022-10-16T03:27:18;98612.59;;;17.64;100.00
11542;BME280;5827;49.482;7.716;2022-10-16T03:29:20;98612.78;;;17.68;100.00
11542;BME280;5827;49.482;7.716;2022-10-16T03:31:22;98617.78;;;17.61;100.00
11542;BME280;5827;49.482;7.716;2022-10-16T03:33:23;98617.63;;;17.52;100.00
11542;BME280;5827;49.482;7.716;2022-10-16T03:35:25;98610.22;;;17.58;100.00
11542;BME280;5827;49.482;7.716;2022-10-16T03:37:26;98610.94;;;17.63;100.00
11542;BME280;5827;49.482;7.716;2022-10-16T03:39:29;98616.00;;;17.70;100.00
11542;BME280;5827;49.482;7.716;2022-10-16T03:41:30;98616.00;;;17.70;100.00
11542;BME280;5827;49.482;7.716;2022-10-16T03:43:33;98606.13;;;17.60;100.00
11542;BME280;5827;49.482;7.716;2022-10-16T03:45:34;98600.63;;;17.65;100.00
11542;BME280;5827;49.482;7.716;2022-10-16T03:47:36;98583.50;;;17.51;100.00
11542;BME280;5827;49.482;7.716;2022-10-16T03:49:38;98589.88;;;17.60;100.00
11542;BME280;5827;49.482;7.716;2022-10-16T03:51:39;98596.19;;;17.56;100.00
11542;BME280;5827;49.482;7.716;2022-10-16T03:53:41;98606.25;;;17.50;100.00
11542;BME280;5827;49.482;7.716;2022-10-16T03:55:44;98609.84;;;17.45;100.00
11542;BME280;5827;49.482;7.716;2022-10-16T03:57:46;98612.44;;;17.37;100.00
11542;BME280;5827;49.482;7.716;2022-10-16T03:59:47;98611.31;;;17.38;100.00
11542;BME280;5827;49.482;7.716;2022-10-16T04:01:49;98612.94;;;17.39;100.00
11542;BME280;5827;49.482;7.716;2022-10-16T04:03:50;98612.75;;;17.30;100.00
11542;BME280;5827;49.482;7.716;2022-10-16T04:05:52;98622.22;;;17.33;100.00
11542;BME280;5827;49.482;7.716;2022-10-16T04:07:53;98624.34;;;17.36;100.00
11542;BME280;5827;49.482;7.716;2022-10-16T04:09:55;98628.28;;;17.24;100.00
11542;BME280;5827;49.482;7.716;2022-10-16T04:12:00;98628.44;;;17.33;100.00
11542;BME280;5827;49.482;7.716;2022-10-16T04:14:01;98632.47;;;17.36;100.00
11542;BME280;5827;49.482;7.716;2022-10-16T04:16:03;98626.97;;;17.41;100.00
11542;BME280;5827;49.482;7.716;2022-10-16T04:18:05;98632.38;;;17.41;100.00
11542;BME280;5827;49.482;7.716;2022-10-16T04:20:07;98623.75;;;17.39;100.00
11542;BME280;5827;49.482;7.716;2022-10-16T04:22:09;98624.88;;;17.38;100.00
11542;BME280;5827;49.482;7.716;2022-10-16T04:24:10;98613.22;;;17.37;100.00
11542;BME280;5827;49.482;7.716;2022-10-16T04:26:12;98612.69;;;17.35;100.00
11542;BME280;5827;49.482;7.716;2022-10-16T04:28:15;98608.25;;;17.44;100.00
11542;BME280;5827;49.482;7.716;2022-10-16T04:30:16;98617.31;;;17.35;100.00
11542;BME280;5827;49.482;7.716;2022-10-16T04:32:18;98616.50;;;17.34;100.00
11542;BME280;5827;49.482;7.716;2022-10-16T04:34:20;98591.91;;;17.31;100.00
11542;BME280;5827;49.482;7.716;2022-10-16T04:36:21;98605.97;;;17.33;100.00
11542;BME280;5827;49.482;7.716;2022-10-16T04:38:23;98602.59;;;17.41;100.00
11542;BME280;5827;49.482;7.716;2022-10-16T04:40:24;98603.91;;;17.24;100.00
11542;BME280;5827;49.482;7.716;2022-10-16T04:42:26;98612.03;;;17.24;100.00
11542;BME280;5827;49.482;7.716;2022-10-16T04:44:29;98608.97;;;17.31;100.00
11542;BME280;5827;49.482;7.716;2022-10-16T04:46:30;98615.47;;;17.30;100.00
11542;BME280;5827;49.482;7.716;2022-10-16T04:48:32;98615.72;;;17.34;100.00
11542;BME280;5827;49.482;7.716;2022-10-16T04:50:34;98615.69;;;17.15;100.00
11542;BME280;5827;49.482;7.716;2022-10-16T04:52:35;98618.38;;;17.15;100.00
11542;BME280;5827;49.482;7.716;2022-10-16T04:54:36;98622.19;;;17.14;100.00
11542;BME280;5827;49.482;7.716;2022-10-16T04:56:38;98621.38;;;17.13;100.00
11542;BME280;5827;49.482;7.716;2022-10-16T04:58:46;98623.50;;;17.16;100.00
11542;BME280;5827;49.482;7.716;2022-10-16T05:00:49;98627.78;;;16.98;100.00
11542;BME280;5827;49.482;7.716;2022-10-16T05:02:51;98624.44;;;17.07;100.00
11542;BME280;5827;49.482;7.716;2022-10-16T05:04:52;98628.50;;;17.04;100.00
11542;BME280;5827;49.482;7.716;2022-10-16T05:06:54;98628.75;;;17.08;100.00
11542;BME280;5827;49.482;7.716;2022-10-16T05:08:55;98645.00;;;17.08;100.00
11542;BME280;5827;49.482;7.716;2022-10-16T05:10:56;98648.00;;;17.06;100.00
11542;BME280;5827;49.482;7.716;2022-10-16T05:12:58;98653.47;;;17.01;100.00
11542;BME280;5827;49.482;7.716;2022-10-16T05:14:59;98649.91;;;17.06;100.00
11542;BME280;5827;49.482;7.716;2022-10-16T05:17:02;98635.03;;;17.03;100.00
11542;BME280;5827;49.482;7.716;2022-10-16T05:19:04;98630.09;;;17.10;100.00
11542;BME280;5827;49.482;7.716;2022-10-16T05:21:05;98637.34;;;17.15;100.00
11542;BME280;5827;49.482;7.716;2022-10-16T05:23:07;98626.97;;;16.98;100.00
11542;BME280;5827;49.482;7.716;2022-10-16T05:25:10;98630.09;;;17.10;100.00
11542;BME280;5827;49.482;7.716;2022-10-16T05:27:12;98635.50;;;17.10;100.00
11542;BME280;5827;49.482;7.716;2022-10-16T05:29:19;98637.84;;;17.17;100.00
11542;BME280;5827;49.482;7.716;2022-10-16T05:31:20;98641.09;;;17.19;100.00
11542;BME280;5827;49.482;7.716;2022-10-16T05:33:24;98645.63;;;17.23;100.00
11542;BME280;5827;49.482;7.716;2022-10-16T05:35:26;98650.19;;;17.28;100.00
11542;BME280;5827;49.482;7.716;2022-10-16T05:37:28;98651.56;;;17.25;100.00
11542;BME280;5827;49.482;7.716;2022-10-16T05:39:29;98647.53;;;17.23;100.00
11542;BME280;5827;49.482;7.716;2022-10-16T05:41:30;98645.34;;;17.25;100.00
11542;BME280;5827;49.482;7.716;2022-10-16T05:43:32;98640.69;;;17.07;100.00
11542;BME280;5827;49.482;7.716;2022-10-16T05:45:34;98642.28;;;17.08;100.00
11542;BME280;5827;49.482;7.716;2022-10-16T05:47:35;98652.84;;;17.09;100.00
11542;BME280;5827;49.482;7.716;2022-10-16T05:49:38;98665.72;;;17.17;100.00
11542;BME280;5827;49.482;7.716;2022-10-16T05:51:39;98661.06;;;17.23;100.00
11542;BME280;5827;49.482;7.716;2022-10-16T05:53:41;98661.69;;;17.39;100.00
11542;BME280;5827;49.482;7.716;2022-10-16T05:55:43;98658.31;;;17.28;100.00
11542;BME280;5827;49.482;7.716;2022-10-16T05:57:44;98667.91;;;17.39;100.00
11542;BME280;5827;49.482;7.716;2022-10-16T05:59:45;98666.75;;;17.21;100.00
11542;BME280;5827;49.482;7.716;2022-10-16T06:01:47;98667.63;;;17.17;100.00
11542;BME280;5827;49.482;7.716;2022-10-16T06:03:49;98665.38;;;17.24;100.00
11542;BME280;5827;49.482;7.716;2022-10-16T06:05:52;98669.69;;;17.25;100.00
11542;BME280;5827;49.482;7.716;2022-10-16T06:07:54;98665.66;;;17.22;100.00
11542;BME280;5827;49.482;7.716;2022-10-16T06:09:55;98669.94;;;17.28;100.00
11542;BME280;5827;49.482;7.716;2022-10-16T06:11:57;98665.88;;;17.26;100.00
11542;BME280;5827;49.482;7.716;2022-10-16T06:14:00;98671.84;;;17.28;100.00
11542;BME280;5827;49.482;7.716;2022-10-16T06:16:03;98675.59;;;17.32;100.00
11542;BME280;5827;49.482;7.716;2022-10-16T06:18:05;98681.81;;;17.33;100.00
11542;BME280;5827;49.482;7.716;2022-10-16T06:20:07;98689.63;;;17.34;100.00
11542;BME280;5827;49.482;7.716;2022-10-16T06:22:10;98690.00;;;17.27;100.00
11542;BME280;5827;49.482;7.716;2022-10-16T06:24:11;98689.16;;;17.27;100.00
11542;BME280;5827;49.482;7.716;2022-10-16T06:26:15;98679.66;;;17.30;100.00
11542;BME280;5827;49.482;7.716;2022-10-16T06:28:16;98672.34;;;17.30;100.00
11542;BME280;5827;49.482;7.716;2022-10-16T06:30:18;98679.09;;;17.33;100.00
11542;BME280;5827;49.482;7.716;2022-10-16T06:32:19;98681.28;;;17.31;100.00
11542;BME280;5827;49.482;7.716;2022-10-16T06:34:21;98683.41;;;17.34;100.00
11542;BME280;5827;49.482;7.716;2022-10-16T06:36:23;98686.44;;;17.27;100.00
11542;BME280;5827;49.482;7.716;2022-10-16T06:38:26;98689.69;;;17.29;100.00
11542;BME280;5827;49.482;7.716;2022-10-16T06:40:28;98695.63;;;17.31;100.00
11542;BME280;5827;49.482;7.716;2022-10-16T06:42:30;98701.50;;;17.38;100.00
11542;BME280;5827;49.482;7.716;2022-10-16T06:44:31;98704.38;;;17.47;100.00
11542;BME280;5827;49.482;7.716;2022-10-16T06:46:33;98683.03;;;17.40;100.00
11542;BME280;5827;49.482;7.716;2022-10-16T06:48:36;98687.38;;;17.41;100.00
11542;BME280;5827;49.482;7.716;2022-10-16T06:50:37;98683.13;;;17.35;100.00
11542;BME280;5827;49.482;7.716;2022-10-16T06:52:39;98690.66;;;17.38;100.00
11542;BME280;5827;49.482;7.716;2022-10-16T06:54:42;98693.06;;;17.40;100.00
11542;BME280;5827;49.482;7.716;2022-10-16T06:56:43;98711.16;;;17.44;100.00
11542;BME280;5827;49.482;7.716;2022-10-16T06:58:45;98717.75;;;17.38;100.00
11542;BME280;5827;49.482;7.716;2022-10-16T07:00:47;98716.72;;;17.34;100.00
11542;BME280;5827;49.482;7.716;2022-10-16T07:02:49;98719.19;;;17.31;100.00
11542;BME280;5827;49.482;7.716;2022-10-16T07:04:51;98725.00;;;17.43;100.00
11542;BME280;5827;49.482;7.716;2022-10-16T07:06:52;98717.84;;;17.52;100.00
11542;BME280;5827;49.482;7.716;2022-10-16T07:08:54;98715.59;;;17.59;100.00
11542;BME280;5827;49.482;7.716;2022-10-16T07:11:00;98717.59;;;17.72;100.00
11542;BME280;5827;49.482;7.716;2022-10-16T07:13:02;98727.72;;;17.43;100.00
11542;BME280;5827;49.482;7.716;2022-10-16T07:15:05;98725.34;;;17.12;100.00
11542;BME280;5827;49.482;7.716;2022-10-16T07:17:06;98724.09;;;17.05;100.00
11542;BME280;5827;49.482;7.716;2022-10-16T07:19:08;98722.56;;;17.17;100.00
11542;BME280;5827;49.482;7.716;2022-10-16T07:21:14;98743.00;;;17.34;100.00
11542;BME280;5827;49.482;7.716;2022-10-16T07:23:16;98754.50;;;17.44;100.00
11542;BME280;5827;49.482;7.716;2022-10-16T07:25:17;98756.13;;;17.21;100.00
11542;BME280;5827;49.482;7.716;2022-10-16T07:27:20;98751.63;;;17.12;100.00
11542;BME280;5827;49.482;7.716;2022-10-16T07:29:24;98754.88;;;17.38;100.00
11542;BME280;5827;49.482;7.716;2022-10-16T07:31:26;98760.22;;;17.43;100.00
11542;BME280;5827;49.482;7.716;2022-10-16T07:33:28;98764.84;;;17.42;100.00
11542;BME280;5827;49.482;7.716;2022-10-16T07:35:29;98772.53;;;17.54;100.00
11542;BME280;5827;49.482;7.716;2022-10-16T07:37:31;98776.66;;;17.51;100.00
11542;BME280;5827;49.482;7.716;2022-10-16T07:39:32;98789.03;;;17.58;100.00
11542;BME280;5827;49.482;7.716;2022-10-16T07:41:33;98787.44;;;17.57;100.00
11542;BME280;5827;49.482;7.716;2022-10-16T07:43:38;98791.75;;;17.58;100.00
11542;BME280;5827;49.482;7.716;2022-10-16T07:45:47;98812.63;;;17.57;100.00
11542;BME280;5827;49.482;7.716;2022-10-16T07:47:49;98832.44;;;17.52;100.00
11542;BME280;5827;49.482;7.716;2022-10-16T07:49:50;98827.69;;;17.39;100.00
11542;BME280;5827;49.482;7.716;2022-10-16T07:51:52;98797.97;;;17.05;100.00
11542;BME280;5827;49.482;7.716;2022-10-16T07:53:53;98822.50;;;17.19;100.00
11542;BME280;5827;49.482;7.716;2022-10-16T07:55:57;98824.91;;;17.20;100.00
11542;BME280;5827;49.482;7.716;2022-10-16T07:58:00;98818.03;;;17.33;100.00
11542;BME280;5827;49.482;7.716;2022-10-16T08:00:03;98819.44;;;17.25;100.00
11542;BME280;5827;49.482;7.716;2022-10-16T08:02:05;98816.41;;;17.32;100.00
11542;BME280;5827;49.482;7.716;2022-10-16T08:04:06;98813.00;;;17.45;100.00
11542;BME280;5827;49.482;7.716;2022-10-16T08:06:08;98817.28;;;17.51;100.00
11542;BME280;5827;49.482;7.716;2022-10-16T08:08:13;98819.41;;;17.54;100.00
11542;BME280;5827;49.482;7.716;2022-10-16T08:10:16;98827.22;;;17.61;100.00
11542;BME280;5827;49.482;7.716;2022-10-16T08:12:18;98827.53;;;17.54;100.00
11542;BME280;5827;49.482;7.716;2022-10-16T08:14:20;98830.97;;;17.65;100.00
11542;BME280;5827;49.482;7.716;2022-10-16T08:16:23;98836.75;;;17.83;100.00
11542;BME280;5827;49.482;7.716;2022-10-16T08:18:24;98837.19;;;17.90;100.00
11542;BME280;5827;49.482;7.716;2022-10-16T08:20:26;98837.50;;;17.88;100.00
11542;BME280;5827;49.482;7.716;2022-10-16T08:22:28;98844.75;;;17.93;100.00
11542;BME280;5827;49.482;7.716;2022-10-16T08:24:30;98852.25;;;18.01;100.00
11542;BME280;5827;49.482;7.716;2022-10-16T08:26:32;98846.53;;;18.02;100.00
11542;BME280;5827;49.482;7.716;2022-10-16T08:28:34;98843.63;;;18.18;100.00
11542;BME280;5827;49.482;7.716;2022-10-16T08:30:36;98847.38;;;18.22;100.00
11542;BME280;5827;49.482;7.716;2022-10-16T08:32:39;98851.34;;;18.29;100.00
11542;BME280;5827;49.482;7.716;2022-10-16T08:34:41;98851.06;;;18.31;100.00
11542;BME280;5827;49.482;7.716;2022-10-16T08:36:42;98852.16;;;18.30;100.00
11542;BME280;5827;49.482;7.716;2022-10-16T08:38:47;98855.03;;;18.39;100.00
11542;BME280;5827;49.482;7.716;2022-10-16T08:40:49;98860.75;;;18.56;100.00
11542;BME280;5827;49.482;7.716;2022-10-16T08:42:59;98866.28;;;18.70;100.00
11542;BME280;5827;49.482;7.716;2022-10-16T08:45:15;98861.88;;;18.74;100.00
11542;BME280;5827;49.482;7.716;2022-10-16T08:47:23;98863.16;;;18.58;100.00
11542;BME280;5827;49.482;7.716;2022-10-16T08:49:29;98869.56;;;18.86;100.00
11542;BME280;5827;49.482;7.716;2022-10-16T08:51:33;98872.78;;;18.69;100.00
11542;BME280;5827;49.482;7.716;2022-10-16T08:53:41;98866.53;;;18.68;100.00
11542;BME280;5827;49.482;7.716;2022-10-16T08:55:46;98869.34;;;18.82;100.00
11542;BME280;5827;49.482;7.716;2022-10-16T08:57:50;98867.53;;;19.10;100.00
11542;BME280;5827;49.482;7.716;2022-10-16T08:59:52;98868.41;;;19.24;100.00
11542;BME280;5827;49.482;7.716;2022-10-16T09:01:55;98870.84;;;19.40;100.00
11542;BME280;5827;49.482;7.716;2022-10-16T09:04:26;98868.78;;;19.18;100.00
11542;BME280;5827;49.482;7.716;2022-10-16T09:06:41;98880.25;;;19.47;100.00
11542;BME280;5827;49.482;7.716;2022-10-16T09:08:54;98878.56;;;19.65;100.00
11542;BME280;5827;49.482;7.716;2022-10-16T09:11:06;98885.75;;;19.75;100.00
11542;BME280;5827;49.482;7.716;2022-10-16T09:13:17;98883.44;;;19.82;100.00
11542;BME280;5827;49.482;7.716;2022-10-16T09:15:27;98885.66;;;19.94;100.00
11542;BME280;5827;49.482;7.716;2022-10-16T09:17:37;98886.16;;;19.82;100.00
11542;BME280;5827;49.482;7.716;2022-10-16T09:19:48;98889.41;;;19.98;100.00
11542;BME280;5827;49.482;7.716;2022-10-16T09:21:54;98907.53;;;20.16;100.00
11542;BME280;5827;49.482;7.716;2022-10-16T09:23:58;98900.66;;;20.19;100.00
11542;BME280;5827;49.482;7.716;2022-10-16T09:26:01;98901.78;;;20.04;100.00
11542;BME280;5827;49.482;7.716;2022-10-16T09:28:04;98891.00;;;20.26;100.00
11542;BME280;5827;49.482;7.716;2022-10-16T09:30:11;98899.84;;;20.32;100.00
11542;BME280;5827;49.482;7.716;2022-10-16T09:32:15;98903.78;;;20.53;100.00
11542;BME280;5827;49.482;7.716;2022-10-16T09:34:24;98902.88;;;20.58;100.00
11542;BME280;5827;49.482;7.716;2022-10-16T09:36:28;98904.84;;;20.66;100.00
11542;BME280;5827;49.482;7.716;2022-10-16T09:38:38;98897.59;;;20.62;100.00
11542;BME280;5827;49.482;7.716;2022-10-16T09:40:42;98909.69;;;20.69;100.00
11542;BME280;5827;49.482;7.716;2022-10-16T09:42:43;98906.03;;;20.74;100.00
11542;BME280;5827;49.482;7.716;2022-10-16T09:44:47;98914.63;;;20.81;100.00
11542;BME280;5827;49.482;7.716;2022-10-16T09:47:00;98912.44;;;20.92;100.00
11542;BME280;5827;49.482;7.716;2022-10-16T09:49:03;98916.53;;;20.80;100.00
11542;BME280;5827;49.482;7.716;2022-10-16T09:51:15;98922.06;;;20.89;100.00
11542;BME280;5827;49.482;7.716;2022-10-16T09:53:17;98923.81;;;21.08;100.00
11542;BME280;5827;49.482;7.716;2022-10-16T09:55:24;98930.34;;;21.06;100.00
11542;BME280;5827;49.482;7.716;2022-10-16T09:57:26;98918.66;;;20.70;100.00
11542;BME280;5827;49.482;7.716;2022-10-16T09:59:27;98909.72;;;20.55;100.00
11542;BME280;5827;49.482;7.716;2022-10-16T10:01:35;98921.06;;;20.85;100.00
11542;BME280;5827;49.482;7.716;2022-10-16T10:03:39;98929.19;;;20.99;100.00
11542;BME280;5827;49.482;7.716;2022-10-16T10:05:47;98917.28;;;20.95;100.00
11542;BME280;5827;49.482;7.716;2022-10-16T10:07:55;98921.31;;;20.97;100.00
11542;BME280;5827;49.482;7.716;2022-10-16T10:09:58;98928.31;;;20.90;100.00
11542;BME280;5827;49.482;7.716;2022-10-16T10:12:02;98919.44;;;21.06;100.00
11542;BME280;5827;49.482;7.716;2022-10-16T10:14:05;98922.06;;;20.89;100.00
11542;BME280;5827;49.482;7.716;2022-10-16T10:16:07;98922.75;;;20.95;100.00
11542;BME280;5827;49.482;7.716;2022-10-16T10:18:16;98919.78;;;21.05;100.00
11542;BME280;5827;49.482;7.716;2022-10-16T10:20:26;98921.38;;;21.06;100.00
11542;BME280;5827;49.482;7.716;2022-10-16T10:22:31;98927.56;;;21.20;100.00
11542;BME280;5827;49.482;7.716;2022-10-16T10:24:33;98929.81;;;21.18;100.00
11542;BME280;5827;49.482;7.716;2022-10-16T10:26:34;98930.38;;;21.29;100.00
11542;BME280;5827;49.482;7.716;2022-10-16T10:28:54;98927.34;;;21.30;100.00
11542;BME280;5827;49.482;7.716;2022-10-16T10:31:03;98932.72;;;21.22;100.00
11542;BME280;5827;49.482;7.716;2022-10-16T10:33:20;98932.03;;;21.16;100.00
11542;BME280;5827;49.482;7.716;2022-10-16T10:35:28;98923.25;;;21.19;100.00
11542;BME280;5827;49.482;7.716;2022-10-16T10:37:46;98937.19;;;21.18;100.00
11542;BME280;5827;49.482;7.716;2022-10-16T10:40:00;98936.34;;;21.31;100.00
11542;BME280;5827;49.482;7.716;2022-10-16T10:42:16;98930.19;;;21.25;100.00
11542;BME280;5827;49.482;7.716;2022-10-16T10:44:36;98931.28;;;21.24;100.00
11542;BME280;5827;49.482;7.716;2022-10-16T10:46:44;98944.03;;;21.15;100.00
11542;BME280;5827;49.482;7.716;2022-10-16T10:49:02;98944.44;;;21.22;100.00
11542;BME280;5827;49.482;7.716;2022-10-16T10:51:10;98945.22;;;21.00;100.00
11542;BME280;5827;49.482;7.716;2022-10-16T10:53:24;98937.97;;;20.96;100.00
11542;BME280;5827;49.482;7.716;2022-10-16T10:55:37;98941.66;;;21.14;100.00